Terminal Aerodrome Forecast
Issued by NWS Omaha/Valley, NE

Home | Current Version | Previous Version | Text Only | Print | Product List | Glossary On
Versions: 1 2 3 4 5 6 7 8 9 10 11 12 13
000
FTUS43 KOAX 252322
TAFLNK
TAF
KLNK 252322Z 2600/2624 32007KT P6SM SKC
     FM260300 23004KT P6SM BKN250
     FM261200 30004KT P6SM VCSH BKN150
     FM261800 18006KT P6SM BKN070
     FM262200 03005KT P6SM SCT130=

USA.gov is the U.S. government's official web portal to all federal, state and local government web resources and services.